NCAR-RAP Real-Time Weather Data

Output produced by METARs form (10 April 2020  06:26 UTC)
found at http://weather.rap.ucar.edu/surface/
 
KTUS 100553Z 24004KT 10SM CLR 14/M03 A3005 RMK AO2 SLP152 T01391033 10233 20139 51014
KTUS 100453Z 28003KT 10SM CLR 16/M03 A3005 RMK AO2 SLP151 T01561028
KTUS 100353Z 29004KT 10SM CLR 17/M03 A3004 RMK AO2 SLP145 T01721033
KTUS 100253Z 33005KT 10SM CLR 18/M03 A3001 RMK AO2 SLP136 T01831028 53014
KTUS 100153Z 34010KT 10SM CLR 19/M04 A2998 RMK AO2 SLP126 T01941039
KTUS 100053Z 36011KT 10SM CLR 22/M04 A2997 RMK AO2 SLP121 T02171039
KTUS 092353Z 31008G18KT 10SM CLR 23/M04 A2997 RMK AO2 SLP117 T02281039 10233 20172 56021
KTUS 092253Z 23003KT 10SM CLR 22/M04 A2998 RMK AO2 SLP123 T02221039
KTUS 092153Z 34010G14KT 10SM CLR 23/M05 A3001 RMK AO2 SLP131 T02281050
KTUS 092053Z 00000KT 10SM CLR 21/M06 A3003 RMK AO2 SLP142 T02061056 56029
KTUS 091953Z 35007KT 10SM CLR 21/M04 A3006 RMK AO2 SLP152 T02061039
KTUS 091853Z 00000KT 10SM CLR 19/M04 A3009 RMK AO2 SLP163 T01941039
KTUS 091753Z 31004KT 10SM CLR 17/M01 A3012 RMK AO2 SLP176 T01721006 10172 20111 58004
KTUS 091653Z VRB03KT 10SM CLR 16/02 A3014 RMK AO2 SLP180 T01610017
KTUS 091553Z 20006KT 10SM CLR 15/03 A3014 RMK AO2 SLP182 T01500028
KTUS 091453Z 17003KT 10SM CLR 13/02 A3014 RMK AO2 SLP181 T01330022 51008
KTUS 091353Z 00000KT 10SM CLR 12/02 A3013 RMK AO2 SLP177 T01220017
KTUS 091253Z 00000KT 10SM CLR 11/02 A3012 RMK AO2 SLP170 T01110017
KTUS 091153Z 35006KT 10SM SCT041 BKN050 12/02 A3011 RMK AO2 SLP164 T01220017 10150 20122 50004
KTUS 091053Z 32006KT 10SM BKN042 OVC055 13/02 A3011 RMK AO2 SLP163 T01280017
KTUS 091032Z 31008KT 10SM OVC040 13/02 A3011 RMK AO2 T01280022
KTUS 090953Z 30006G15KT 10SM OVC038 13/03 A3010 RMK AO2 SLP160 T01330028
KTUS 090853Z 31008KT 10SM OVC041 14/04 A3010 RMK AO2 SLP157 T01390039 50001